EZY14P LXGB-LPMA
Flight info
| Callsign | EZY14P |
|---|---|
| Flight time | 2h 0m |
| Altitude | 38000 |
| Route | LINTO UN10 TNR UN726 BAMBA N726 ORTOP DCT NARTA/N0453F370 DCT RULET DCT RAKUN |
| Aircraft | A319/M-SDE3FGHIRWY/LB1 |
Departure
| Time | 2026-05-01 11:54 |
|---|---|
| Airport | Gibraltar Airport (LXGB) |
Arrival
| Time | 2026-05-01 13:54 |
|---|---|
| Airport | Cristiano Ronaldo International Airport (LPMA) |
| Time | Latitude | Longitude | Altitude | Speed | Heading |
|---|---|---|---|---|---|
| 2026-05-01 11:34 | 36.15306 | -5.34673 | 19 ft | 0 kts | 0° |
| 2026-05-01 11:46 | 36.15291 | -5.34674 | 19 ft | 4 kts | 360° |
| 2026-05-01 11:47 | 36.15265 | -5.34673 | 19 ft | 4 kts | 354° |
| 2026-05-01 11:47 | 36.15238 | -5.34669 | 21 ft | 4 kts | 358° |
| 2026-05-01 11:47 | 36.15218 | -5.34673 | 22 ft | 2 kts | 63° |
| 2026-05-01 11:47 | 36.15218 | -5.34675 | 22 ft | 0 kts | 65° |
| 2026-05-01 11:49 | 36.15218 | -5.34673 | 22 ft | 1 kts | 65° |
| 2026-05-01 11:50 | 36.15225 | -5.34651 | 22 ft | 5 kts | 71° |
| 2026-05-01 11:50 | 36.15230 | -5.34581 | 19 ft | 11 kts | 88° |
| 2026-05-01 11:50 | 36.15233 | -5.34478 | 16 ft | 14 kts | 88° |
| 2026-05-01 11:50 | 36.15238 | -5.34352 | 14 ft | 15 kts | 87° |
| 2026-05-01 11:51 | 36.15234 | -5.34245 | 16 ft | 11 kts | 120° |
| 2026-05-01 11:51 | 36.15167 | -5.34229 | 16 ft | 10 kts | 169° |
| 2026-05-01 11:51 | 36.15148 | -5.34154 | 16 ft | 11 kts | 86° |
| 2026-05-01 11:51 | 36.15176 | -5.34067 | 19 ft | 11 kts | 84° |
| 2026-05-01 11:52 | 36.15155 | -5.34040 | 17 ft | 4 kts | 249° |
| 2026-05-01 11:52 | 36.15152 | -5.34068 | 19 ft | 0 kts | 269° |
| 2026-05-01 11:53 | 36.15150 | -5.34223 | 16 ft | 58 kts | 269° |
| 2026-05-01 11:53 | 36.15118 | -5.35097 | 25 ft | 142 kts | 267° |
| 2026-05-01 11:53 | 36.15068 | -5.36433 | 562 ft | 158 kts | 264° |
| 2026-05-01 11:54 | 36.15011 | -5.37814 | 1360 ft | 163 kts | 266° |
| 2026-05-01 11:54 | 36.14854 | -5.39241 | 1938 ft | 177 kts | 250° |
| 2026-05-01 11:54 | 36.14167 | -5.40608 | 2347 ft | 196 kts | 233° |
| 2026-05-01 11:54 | 36.13306 | -5.42052 | 2726 ft | 222 kts | 233° |
| 2026-05-01 11:55 | 36.12346 | -5.43682 | 3251 ft | 247 kts | 232° |
| 2026-05-01 11:55 | 36.11311 | -5.45481 | 3978 ft | 265 kts | 233° |
| 2026-05-01 11:55 | 36.10249 | -5.47393 | 4933 ft | 271 kts | 234° |
| 2026-05-01 11:55 | 36.09194 | -5.49314 | 6026 ft | 271 kts | 234° |
| 2026-05-01 11:56 | 36.08115 | -5.51249 | 6979 ft | 275 kts | 233° |
| 2026-05-01 11:56 | 36.07014 | -5.53201 | 7915 ft | 278 kts | 234° |
| 2026-05-01 11:56 | 36.05906 | -5.55176 | 8889 ft | 281 kts | 234° |
| 2026-05-01 11:56 | 36.04791 | -5.57169 | 9867 ft | 283 kts | 234° |
| 2026-05-01 11:57 | 36.03660 | -5.59193 | 10562 ft | 295 kts | 234° |
| 2026-05-01 11:57 | 36.02442 | -5.61366 | 10866 ft | 319 kts | 234° |
| 2026-05-01 11:57 | 36.01132 | -5.63700 | 11115 ft | 342 kts | 235° |
| 2026-05-01 11:57 | 35.99757 | -5.66156 | 11650 ft | 352 kts | 235° |
| 2026-05-01 11:58 | 35.98375 | -5.68626 | 12349 ft | 356 kts | 235° |
| 2026-05-01 11:58 | 35.96964 | -5.71157 | 13096 ft | 359 kts | 237° |
| 2026-05-01 11:58 | 35.95622 | -5.77062 | 14460 ft | 369 kts | 271° |
| 2026-05-01 11:59 | 35.95769 | -5.80230 | 15172 ft | 370 kts | 272° |
| 2026-05-01 11:59 | 35.95931 | -5.83399 | 15878 ft | 371 kts | 273° |
| 2026-05-01 11:59 | 35.96097 | -5.86583 | 16583 ft | 372 kts | 273° |
| 2026-05-01 12:00 | 35.96428 | -5.92980 | 17987 ft | 375 kts | 273° |
| 2026-05-01 12:00 | 35.96589 | -5.96200 | 18655 ft | 377 kts | 273° |
| 2026-05-01 12:00 | 35.96903 | -6.02681 | 19812 ft | 380 kts | 273° |
| 2026-05-01 12:01 | 35.97059 | -6.05948 | 20366 ft | 382 kts | 273° |
| 2026-05-01 12:01 | 35.97214 | -6.09230 | 20905 ft | 384 kts | 273° |
| 2026-05-01 12:01 | 35.97369 | -6.12530 | 21444 ft | 386 kts | 274° |
| 2026-05-01 12:01 | 35.97524 | -6.15844 | 21959 ft | 388 kts | 274° |
| 2026-05-01 12:02 | 35.97679 | -6.19180 | 22471 ft | 390 kts | 274° |
| 2026-05-01 12:02 | 35.97833 | -6.22528 | 22962 ft | 392 kts | 274° |
| 2026-05-01 12:02 | 35.97990 | -6.25897 | 23443 ft | 394 kts | 274° |
| 2026-05-01 12:02 | 35.98147 | -6.29291 | 23886 ft | 397 kts | 274° |
| 2026-05-01 12:03 | 35.98303 | -6.32698 | 24283 ft | 398 kts | 274° |
| 2026-05-01 12:03 | 35.98458 | -6.36114 | 24683 ft | 400 kts | 274° |
| 2026-05-01 12:03 | 35.98612 | -6.39545 | 25079 ft | 401 kts | 274° |
| 2026-05-01 12:03 | 35.98765 | -6.42945 | 25470 ft | 402 kts | 274° |
| 2026-05-01 12:04 | 35.98922 | -6.46395 | 25859 ft | 404 kts | 274° |
| 2026-05-01 12:04 | 35.99079 | -6.49864 | 26241 ft | 405 kts | 273° |
| 2026-05-01 12:04 | 35.99233 | -6.53345 | 26613 ft | 407 kts | 273° |
| 2026-05-01 12:04 | 35.99385 | -6.56837 | 26984 ft | 408 kts | 273° |
| 2026-05-01 12:05 | 35.99537 | -6.60337 | 27345 ft | 409 kts | 273° |
| 2026-05-01 12:05 | 35.99844 | -6.67387 | 28036 ft | 412 kts | 273° |
| 2026-05-01 12:05 | 35.99991 | -6.70928 | 28374 ft | 414 kts | 273° |
| 2026-05-01 12:06 | 36.00138 | -6.74478 | 28699 ft | 415 kts | 273° |
| 2026-05-01 12:06 | 36.00286 | -6.78042 | 29019 ft | 416 kts | 273° |
| 2026-05-01 12:06 | 36.00437 | -6.81622 | 29336 ft | 418 kts | 273° |
| 2026-05-01 12:06 | 36.00587 | -6.85200 | 29762 ft | 416 kts | 273° |
| 2026-05-01 12:07 | 36.00735 | -6.88772 | 30213 ft | 415 kts | 273° |
| 2026-05-01 12:07 | 36.00881 | -6.92284 | 30601 ft | 413 kts | 273° |
| 2026-05-01 12:07 | 36.01027 | -6.95825 | 31001 ft | 411 kts | 273° |
| 2026-05-01 12:07 | 36.01170 | -6.99348 | 31415 ft | 409 kts | 273° |
| 2026-05-01 12:08 | 36.01311 | -7.02848 | 31827 ft | 407 kts | 272° |
| 2026-05-01 12:08 | 36.01449 | -7.06326 | 32242 ft | 405 kts | 272° |
| 2026-05-01 12:08 | 36.01583 | -7.09795 | 32658 ft | 403 kts | 272° |
| 2026-05-01 12:08 | 36.01716 | -7.13243 | 33074 ft | 401 kts | 272° |
| 2026-05-01 12:09 | 36.01849 | -7.16677 | 33486 ft | 399 kts | 272° |
| 2026-05-01 12:09 | 36.01981 | -7.20092 | 33896 ft | 397 kts | 272° |
| 2026-05-01 12:09 | 36.02110 | -7.23448 | 34272 ft | 396 kts | 272° |
| 2026-05-01 12:09 | 36.02241 | -7.26846 | 34573 ft | 396 kts | 272° |
| 2026-05-01 12:10 | 36.02370 | -7.30241 | 34909 ft | 395 kts | 272° |
| 2026-05-01 12:10 | 36.02619 | -7.36990 | 35686 ft | 390 kts | 272° |
| 2026-05-01 12:10 | 36.02736 | -7.40325 | 36076 ft | 387 kts | 271° |
| 2026-05-01 12:11 | 36.02917 | -7.46943 | 36757 ft | 383 kts | 271° |
| 2026-05-01 12:11 | 36.02997 | -7.50231 | 37066 ft | 382 kts | 271° |
| 2026-05-01 12:11 | 36.03079 | -7.53512 | 37175 ft | 382 kts | 271° |
| 2026-05-01 12:12 | 36.03241 | -7.60021 | 37188 ft | 381 kts | 271° |
| 2026-05-01 12:12 | 36.03407 | -7.66575 | 37188 ft | 382 kts | 270° |
| 2026-05-01 12:13 | 36.03569 | -7.73139 | 37187 ft | 382 kts | 270° |
| 2026-05-01 12:13 | 36.03726 | -7.79709 | 37188 ft | 382 kts | 270° |
| 2026-05-01 12:14 | 36.03880 | -7.86281 | 37190 ft | 382 kts | 270° |
| 2026-05-01 12:14 | 36.04032 | -7.92807 | 37193 ft | 382 kts | 270° |
| 2026-05-01 12:15 | 36.04182 | -7.99370 | 37193 ft | 382 kts | 270° |
| 2026-05-01 12:15 | 36.04322 | -8.05938 | 37193 ft | 382 kts | 270° |
| 2026-05-01 12:16 | 36.04459 | -8.12507 | 37193 ft | 382 kts | 270° |
| 2026-05-01 12:16 | 36.04593 | -8.19077 | 37193 ft | 382 kts | 270° |
| 2026-05-01 12:17 | 36.04731 | -8.25652 | 37193 ft | 382 kts | 270° |
| 2026-05-01 12:17 | 36.04861 | -8.32180 | 37193 ft | 382 kts | 270° |
| 2026-05-01 12:18 | 36.04990 | -8.38764 | 37198 ft | 383 kts | 270° |
| 2026-05-01 12:18 | 36.05109 | -8.45358 | 37198 ft | 383 kts | 269° |
| 2026-05-01 12:19 | 36.05228 | -8.51947 | 37198 ft | 384 kts | 270° |
| 2026-05-01 12:19 | 36.05345 | -8.58536 | 37198 ft | 384 kts | 269° |
| 2026-05-01 12:20 | 36.05456 | -8.65131 | 37196 ft | 384 kts | 269° |
| 2026-05-01 12:20 | 36.05559 | -8.71727 | 37196 ft | 384 kts | 269° |
| 2026-05-01 12:21 | 36.05662 | -8.78297 | 37196 ft | 385 kts | 269° |
| 2026-05-01 12:21 | 36.05763 | -8.84919 | 37198 ft | 385 kts | 269° |
| 2026-05-01 12:22 | 36.05848 | -8.90427 | 37198 ft | 385 kts | 269° |
| 2026-05-01 12:22 | 36.05960 | -8.98168 | 37201 ft | 385 kts | 269° |
| 2026-05-01 12:23 | 36.06055 | -9.04800 | 37201 ft | 385 kts | 269° |
| 2026-05-01 12:23 | 36.06141 | -9.11384 | 37203 ft | 386 kts | 268° |
| 2026-05-01 12:24 | 36.06217 | -9.18024 | 37198 ft | 386 kts | 268° |
| 2026-05-01 12:24 | 36.06297 | -9.24663 | 37201 ft | 386 kts | 269° |
| 2026-05-01 12:25 | 36.06415 | -9.34625 | 37201 ft | 386 kts | 268° |
| 2026-05-01 12:26 | 36.06475 | -9.40142 | 37201 ft | 386 kts | 268° |
| 2026-05-01 12:26 | 36.06583 | -9.51176 | 37201 ft | 386 kts | 268° |
| 2026-05-01 12:27 | 36.06664 | -9.60062 | 37201 ft | 386 kts | 268° |
| 2026-05-01 12:28 | 36.06747 | -9.70038 | 37204 ft | 387 kts | 268° |
| 2026-05-01 12:29 | 36.06829 | -9.79969 | 37204 ft | 387 kts | 268° |
| 2026-05-01 12:29 | 36.06897 | -9.89955 | 37204 ft | 387 kts | 268° |
| 2026-05-01 12:30 | 36.06951 | -9.99931 | 37207 ft | 387 kts | 268° |
| 2026-05-01 12:31 | 36.06982 | -10.06583 | 37206 ft | 387 kts | 268° |
| 2026-05-01 12:31 | 36.07019 | -10.13236 | 37204 ft | 387 kts | 268° |
| 2026-05-01 12:32 | 36.07048 | -10.19851 | 37203 ft | 387 kts | 268° |
| 2026-05-01 12:32 | 36.07076 | -10.29842 | 37200 ft | 387 kts | 267° |
| 2026-05-01 12:33 | 36.07099 | -10.36501 | 37201 ft | 387 kts | 267° |
| 2026-05-01 12:33 | 36.07117 | -10.43150 | 37200 ft | 387 kts | 267° |
| 2026-05-01 12:34 | 36.07125 | -10.49809 | 37203 ft | 387 kts | 267° |
| 2026-05-01 12:34 | 36.07131 | -10.56461 | 37200 ft | 387 kts | 267° |
| 2026-05-01 12:35 | 36.07135 | -10.63079 | 37201 ft | 387 kts | 267° |
| 2026-05-01 12:35 | 36.07129 | -10.69735 | 37201 ft | 387 kts | 267° |
| 2026-05-01 12:36 | 36.07126 | -10.76394 | 37201 ft | 387 kts | 267° |
| 2026-05-01 12:36 | 36.07121 | -10.83057 | 37198 ft | 387 kts | 267° |
| 2026-05-01 12:37 | 36.07115 | -10.89719 | 37195 ft | 387 kts | 267° |
| 2026-05-01 12:37 | 36.07101 | -10.96338 | 37197 ft | 387 kts | 267° |
| 2026-05-01 12:38 | 36.07083 | -11.02996 | 37195 ft | 387 kts | 267° |
| 2026-05-01 12:38 | 36.07053 | -11.09657 | 37195 ft | 387 kts | 267° |
| 2026-05-01 12:39 | 36.07029 | -11.16313 | 37195 ft | 387 kts | 267° |
| 2026-05-01 12:39 | 36.07007 | -11.22970 | 37195 ft | 387 kts | 267° |
| 2026-05-01 12:40 | 36.06970 | -11.29627 | 37193 ft | 387 kts | 266° |
| 2026-05-01 12:40 | 36.06931 | -11.36269 | 37192 ft | 386 kts | 266° |
| 2026-05-01 12:41 | 36.06894 | -11.42907 | 37193 ft | 386 kts | 266° |
| 2026-05-01 12:41 | 36.06851 | -11.49538 | 37193 ft | 386 kts | 266° |
| 2026-05-01 12:42 | 36.06805 | -11.56121 | 37193 ft | 386 kts | 266° |
| 2026-05-01 12:42 | 36.06750 | -11.62753 | 37193 ft | 385 kts | 266° |
| 2026-05-01 12:43 | 36.06695 | -11.69385 | 37193 ft | 385 kts | 266° |
| 2026-05-01 12:43 | 36.06631 | -11.76005 | 37193 ft | 385 kts | 266° |
| 2026-05-01 12:44 | 36.06568 | -11.82626 | 37193 ft | 385 kts | 266° |
| 2026-05-01 12:45 | 36.06439 | -11.95874 | 37190 ft | 385 kts | 266° |
| 2026-05-01 12:45 | 36.06369 | -12.02497 | 37190 ft | 385 kts | 266° |
| 2026-05-01 12:46 | 36.06288 | -12.09106 | 37183 ft | 384 kts | 266° |
| 2026-05-01 12:46 | 36.06203 | -12.15663 | 37188 ft | 384 kts | 266° |
| 2026-05-01 12:47 | 36.06117 | -12.22262 | 37185 ft | 384 kts | 266° |
| 2026-05-01 12:47 | 36.06035 | -12.28858 | 37185 ft | 384 kts | 266° |
| 2026-05-01 12:48 | 36.05947 | -12.35456 | 37180 ft | 384 kts | 266° |
| 2026-05-01 12:48 | 36.05844 | -12.42044 | 37186 ft | 383 kts | 266° |
| 2026-05-01 12:49 | 36.05747 | -12.48609 | 37177 ft | 382 kts | 266° |
| 2026-05-01 12:49 | 36.04923 | -12.55028 | 37176 ft | 379 kts | 249° |
| 2026-05-01 12:50 | 36.02144 | -12.60544 | 37178 ft | 384 kts | 231° |
| 2026-05-01 12:50 | 35.98522 | -12.65403 | 37178 ft | 384 kts | 231° |
| 2026-05-01 12:51 | 35.94912 | -12.70276 | 37175 ft | 384 kts | 231° |
| 2026-05-01 12:52 | 35.89495 | -12.77574 | 37193 ft | 384 kts | 231° |
| 2026-05-01 12:52 | 35.84105 | -12.84814 | 37177 ft | 383 kts | 231° |
| 2026-05-01 12:53 | 35.78682 | -12.92067 | 37175 ft | 384 kts | 231° |
| 2026-05-01 12:54 | 35.75057 | -12.96916 | 37177 ft | 385 kts | 231° |
| 2026-05-01 12:54 | 35.69607 | -13.04196 | 37177 ft | 385 kts | 231° |
| 2026-05-01 12:55 | 35.64163 | -13.11456 | 37174 ft | 385 kts | 231° |
| 2026-05-01 12:56 | 35.60552 | -13.16256 | 37174 ft | 384 kts | 232° |
| 2026-05-01 12:56 | 35.56925 | -13.21074 | 37171 ft | 384 kts | 232° |
| 2026-05-01 12:57 | 35.53288 | -13.25888 | 37171 ft | 384 kts | 232° |
| 2026-05-01 12:57 | 35.47823 | -13.33117 | 37174 ft | 385 kts | 232° |
| 2026-05-01 12:58 | 35.44176 | -13.37943 | 37171 ft | 386 kts | 232° |
| 2026-05-01 12:59 | 35.38704 | -13.45183 | 37171 ft | 386 kts | 232° |
| 2026-05-01 12:59 | 35.33244 | -13.52359 | 37171 ft | 385 kts | 232° |
| 2026-05-01 13:00 | 35.27763 | -13.59554 | 37174 ft | 385 kts | 232° |
| 2026-05-01 13:01 | 35.22274 | -13.66746 | 37168 ft | 385 kts | 232° |
| 2026-05-01 13:02 | 35.16786 | -13.73923 | 37168 ft | 385 kts | 232° |
| 2026-05-01 13:07 | 34.76494 | -14.26147 | 37166 ft | 385 kts | 231° |
| 2026-05-01 13:08 | 34.72820 | -14.30880 | 37167 ft | 385 kts | 231° |
| 2026-05-01 13:08 | 34.69136 | -14.35605 | 37167 ft | 385 kts | 231° |
| 2026-05-01 13:09 | 34.65450 | -14.40318 | 37163 ft | 385 kts | 231° |
| 2026-05-01 13:09 | 34.61761 | -14.45041 | 37166 ft | 387 kts | 231° |
| 2026-05-01 13:10 | 34.58059 | -14.49780 | 37166 ft | 387 kts | 231° |
| 2026-05-01 13:10 | 34.54348 | -14.54529 | 37163 ft | 387 kts | 231° |
| 2026-05-01 13:11 | 34.50629 | -14.59263 | 37163 ft | 388 kts | 231° |
| 2026-05-01 13:11 | 34.46933 | -14.63965 | 37163 ft | 388 kts | 231° |
| 2026-05-01 13:12 | 34.43216 | -14.68694 | 37166 ft | 388 kts | 231° |
| 2026-05-01 13:12 | 34.39499 | -14.73422 | 37166 ft | 387 kts | 231° |
| 2026-05-01 13:13 | 34.35773 | -14.78143 | 37162 ft | 388 kts | 231° |
| 2026-05-01 13:13 | 34.32044 | -14.82855 | 37163 ft | 389 kts | 231° |
| 2026-05-01 13:14 | 34.28300 | -14.87579 | 37161 ft | 389 kts | 231° |
| 2026-05-01 13:14 | 34.24557 | -14.92311 | 37161 ft | 389 kts | 231° |
| 2026-05-01 13:15 | 34.20813 | -14.97041 | 37164 ft | 389 kts | 231° |
| 2026-05-01 13:15 | 34.17085 | -15.01728 | 37168 ft | 389 kts | 231° |
| 2026-05-01 13:16 | 34.13337 | -15.06442 | 37172 ft | 389 kts | 231° |
| 2026-05-01 13:16 | 34.09587 | -15.11165 | 37173 ft | 389 kts | 231° |
| 2026-05-01 13:17 | 34.02077 | -15.20580 | 37168 ft | 390 kts | 231° |
| 2026-05-01 13:18 | 33.97058 | -15.26848 | 37171 ft | 390 kts | 231° |
| 2026-05-01 13:18 | 33.92668 | -15.32321 | 37171 ft | 390 kts | 231° |
| 2026-05-01 13:19 | 33.88894 | -15.37029 | 37171 ft | 390 kts | 231° |
| 2026-05-01 13:20 | 33.83865 | -15.43283 | 37171 ft | 390 kts | 230° |
| 2026-05-01 13:20 | 33.80090 | -15.47974 | 37172 ft | 390 kts | 230° |
| 2026-05-01 13:21 | 33.74414 | -15.55001 | 37168 ft | 390 kts | 230° |
| 2026-05-01 13:21 | 33.72519 | -15.57341 | 36531 ft | 392 kts | 230° |
| 2026-05-01 13:21 | 33.70601 | -15.59720 | 35358 ft | 401 kts | 230° |
| 2026-05-01 13:22 | 33.68645 | -15.62148 | 34230 ft | 407 kts | 230° |
| 2026-05-01 13:22 | 33.66663 | -15.64606 | 33034 ft | 413 kts | 230° |
| 2026-05-01 13:22 | 33.64678 | -15.67066 | 31849 ft | 417 kts | 230° |
| 2026-05-01 13:22 | 33.62647 | -15.69578 | 30623 ft | 421 kts | 230° |
| 2026-05-01 13:23 | 33.60599 | -15.72109 | 29122 ft | 423 kts | 230° |
| 2026-05-01 13:23 | 33.58534 | -15.74652 | 27236 ft | 428 kts | 229° |
| 2026-05-01 13:23 | 33.56448 | -15.77222 | 25471 ft | 432 kts | 229° |
| 2026-05-01 13:23 | 33.54352 | -15.79780 | 24063 ft | 428 kts | 228° |
| 2026-05-01 13:24 | 33.52276 | -15.82236 | 23305 ft | 409 kts | 227° |
| 2026-05-01 13:24 | 33.50281 | -15.84553 | 22564 ft | 392 kts | 227° |
| 2026-05-01 13:24 | 33.48324 | -15.86815 | 21835 ft | 389 kts | 226° |
| 2026-05-01 13:25 | 33.44481 | -15.91277 | 20452 ft | 381 kts | 226° |
| 2026-05-01 13:25 | 33.42588 | -15.93484 | 19776 ft | 379 kts | 226° |
| 2026-05-01 13:25 | 33.40706 | -15.95684 | 19135 ft | 377 kts | 226° |
| 2026-05-01 13:25 | 33.38860 | -15.97842 | 18516 ft | 375 kts | 226° |
| 2026-05-01 13:26 | 33.36995 | -16.00026 | 17863 ft | 373 kts | 226° |
| 2026-05-01 13:26 | 33.35140 | -16.02194 | 17264 ft | 371 kts | 226° |
| 2026-05-01 13:26 | 33.33305 | -16.04336 | 16711 ft | 367 kts | 226° |
| 2026-05-01 13:26 | 33.31487 | -16.06456 | 16167 ft | 364 kts | 226° |
| 2026-05-01 13:27 | 33.29683 | -16.08557 | 15636 ft | 360 kts | 226° |
| 2026-05-01 13:27 | 33.27893 | -16.10641 | 15104 ft | 356 kts | 226° |
| 2026-05-01 13:27 | 33.24376 | -16.14735 | 14033 ft | 350 kts | 227° |
| 2026-05-01 13:28 | 33.20939 | -16.18727 | 12866 ft | 343 kts | 226° |
| 2026-05-01 13:28 | 33.19236 | -16.20701 | 12288 ft | 339 kts | 226° |
| 2026-05-01 13:29 | 33.15876 | -16.24593 | 11226 ft | 330 kts | 226° |
| 2026-05-01 13:29 | 33.12735 | -16.28226 | 10974 ft | 300 kts | 226° |
| 2026-05-01 13:30 | 33.07132 | -16.34700 | 10210 ft | 270 kts | 226° |
| 2026-05-01 13:31 | 33.04440 | -16.37817 | 9914 ft | 270 kts | 226° |
| 2026-05-01 13:31 | 33.00431 | -16.42450 | 9465 ft | 269 kts | 225° |
| 2026-05-01 13:32 | 32.97749 | -16.45544 | 8633 ft | 266 kts | 225° |
| 2026-05-01 13:33 | 32.93799 | -16.50091 | 7443 ft | 260 kts | 224° |
| 2026-05-01 13:33 | 32.91199 | -16.52997 | 6467 ft | 254 kts | 222° |
| 2026-05-01 13:34 | 32.88581 | -16.55767 | 5499 ft | 246 kts | 222° |
| 2026-05-01 13:34 | 32.86159 | -16.58327 | 5135 ft | 229 kts | 222° |
| 2026-05-01 13:35 | 32.83588 | -16.60654 | 4402 ft | 236 kts | 216° |
| 2026-05-01 13:35 | 32.82238 | -16.61771 | 3773 ft | 236 kts | 216° |
| 2026-05-01 13:35 | 32.79667 | -16.63892 | 3222 ft | 208 kts | 216° |
| 2026-05-01 13:36 | 32.78527 | -16.64833 | 3114 ft | 191 kts | 216° |
| 2026-05-01 13:36 | 32.77468 | -16.65708 | 3030 ft | 181 kts | 216° |
| 2026-05-01 13:36 | 32.75413 | -16.67405 | 2512 ft | 177 kts | 216° |
| 2026-05-01 13:37 | 32.74403 | -16.68241 | 2108 ft | 175 kts | 216° |
| 2026-05-01 13:37 | 32.73434 | -16.69065 | 1836 ft | 166 kts | 217° |
| 2026-05-01 13:37 | 32.72573 | -16.69842 | 1704 ft | 150 kts | 218° |
| 2026-05-01 13:37 | 32.71764 | -16.70550 | 1590 ft | 141 kts | 218° |
| 2026-05-01 13:38 | 32.70208 | -16.71850 | 1006 ft | 139 kts | 214° |
| 2026-05-01 13:38 | 32.69439 | -16.72518 | 991 ft | 137 kts | 216° |
| 2026-05-01 13:38 | 32.68648 | -16.73194 | 989 ft | 142 kts | 215° |
| 2026-05-01 13:39 | 32.67842 | -16.73881 | 988 ft | 142 kts | 216° |
| 2026-05-01 13:39 | 32.67041 | -16.74557 | 981 ft | 140 kts | 216° |
| 2026-05-01 13:39 | 32.66237 | -16.75234 | 978 ft | 142 kts | 216° |
| 2026-05-01 13:39 | 32.65427 | -16.75924 | 984 ft | 141 kts | 216° |
| 2026-05-01 13:40 | 32.64641 | -16.76560 | 976 ft | 130 kts | 215° |
| 2026-05-01 13:40 | 32.63898 | -16.77163 | 964 ft | 130 kts | 223° |
| 2026-05-01 13:40 | 32.63513 | -16.78085 | 890 ft | 128 kts | 262° |
| 2026-05-01 13:40 | 32.63722 | -16.79104 | 864 ft | 132 kts | 295° |
| 2026-05-01 13:41 | 32.64427 | -16.79824 | 803 ft | 140 kts | 328° |
| 2026-05-01 13:41 | 32.65382 | -16.80098 | 791 ft | 140 kts | 348° |
| 2026-05-01 13:41 | 32.66369 | -16.80250 | 685 ft | 141 kts | 356° |
| 2026-05-01 13:41 | 32.67358 | -16.80057 | 537 ft | 146 kts | 24° |
| 2026-05-01 13:42 | 32.68181 | -16.79357 | 429 ft | 145 kts | 46° |
| 2026-05-01 13:42 | 32.68892 | -16.78507 | 247 ft | 148 kts | 49° |
| 2026-05-01 13:42 | 32.69594 | -16.77673 | 179 ft | 130 kts | 46° |
| 2026-05-01 13:42 | 32.70294 | -16.76844 | 213 ft | 168 kts | 46° |
| 2026-05-01 13:43 | 32.71132 | -16.75841 | 944 ft | 173 kts | 46° |
| 2026-05-01 13:43 | 32.71999 | -16.74819 | 1787 ft | 177 kts | 44° |
| 2026-05-01 13:43 | 32.72848 | -16.73785 | 2614 ft | 172 kts | 44° |
| 2026-05-01 13:43 | 32.73712 | -16.72707 | 2982 ft | 198 kts | 45° |
| 2026-05-01 13:44 | 32.74734 | -16.71429 | 2934 ft | 222 kts | 46° |
| 2026-05-01 13:44 | 32.75775 | -16.70128 | 2959 ft | 221 kts | 45° |
| 2026-05-01 13:44 | 32.76846 | -16.68787 | 2983 ft | 225 kts | 45° |
| 2026-05-01 13:44 | 32.77954 | -16.67469 | 2985 ft | 226 kts | 43° |
| 2026-05-01 13:45 | 32.79095 | -16.66180 | 2990 ft | 226 kts | 42° |
| 2026-05-01 13:45 | 32.80241 | -16.64903 | 2990 ft | 225 kts | 42° |
| 2026-05-01 13:45 | 32.81385 | -16.63629 | 2993 ft | 225 kts | 42° |
| 2026-05-01 13:45 | 32.82526 | -16.62358 | 2993 ft | 225 kts | 42° |
| 2026-05-01 13:46 | 32.83666 | -16.61097 | 2997 ft | 222 kts | 42° |
| 2026-05-01 13:46 | 32.84803 | -16.59887 | 2996 ft | 218 kts | 41° |
| 2026-05-01 13:46 | 32.85937 | -16.58689 | 2998 ft | 218 kts | 41° |
| 2026-05-01 13:46 | 32.87068 | -16.57492 | 3001 ft | 218 kts | 41° |
| 2026-05-01 13:47 | 32.88197 | -16.56299 | 2939 ft | 216 kts | 41° |
| 2026-05-01 13:47 | 32.89397 | -16.55247 | 2631 ft | 215 kts | 23° |
| 2026-05-01 13:47 | 32.90841 | -16.54939 | 2344 ft | 211 kts | 353° |
| 2026-05-01 13:47 | 32.92206 | -16.55497 | 2066 ft | 207 kts | 323° |
| 2026-05-01 13:48 | 32.93149 | -16.56745 | 1999 ft | 205 kts | 295° |
| 2026-05-01 13:48 | 32.93491 | -16.58370 | 2004 ft | 204 kts | 267° |
| 2026-05-01 13:48 | 32.93167 | -16.59951 | 2001 ft | 195 kts | 240° |
| 2026-05-01 13:48 | 32.92306 | -16.61142 | 1997 ft | 197 kts | 214° |
| 2026-05-01 13:49 | 32.90978 | -16.61886 | 2004 ft | 218 kts | 200° |
| 2026-05-01 13:49 | 32.89538 | -16.62522 | 1997 ft | 222 kts | 200° |
| 2026-05-01 13:49 | 32.88089 | -16.63158 | 1999 ft | 222 kts | 200° |
| 2026-05-01 13:49 | 32.86638 | -16.63796 | 1998 ft | 222 kts | 200° |
| 2026-05-01 13:50 | 32.85187 | -16.64435 | 1996 ft | 222 kts | 200° |
| 2026-05-01 13:50 | 32.83722 | -16.65083 | 1997 ft | 233 kts | 200° |
| 2026-05-01 13:50 | 32.82196 | -16.65842 | 1989 ft | 240 kts | 206° |
| 2026-05-01 13:50 | 32.80733 | -16.66712 | 1989 ft | 236 kts | 208° |
| 2026-05-01 13:51 | 32.79327 | -16.67597 | 1983 ft | 220 kts | 209° |
| 2026-05-01 13:51 | 32.77996 | -16.68444 | 1985 ft | 215 kts | 209° |
| 2026-05-01 13:51 | 32.76731 | -16.69248 | 2007 ft | 195 kts | 209° |
| 2026-05-01 13:51 | 32.75599 | -16.69960 | 1975 ft | 173 kts | 209° |
| 2026-05-01 13:52 | 32.74698 | -16.70739 | 1874 ft | 153 kts | 231° |
| 2026-05-01 13:52 | 32.74109 | -16.71712 | 1834 ft | 138 kts | 238° |
| 2026-05-01 13:52 | 32.73638 | -16.72684 | 1477 ft | 133 kts | 240° |
| 2026-05-01 13:52 | 32.73101 | -16.73561 | 1153 ft | 130 kts | 227° |
| 2026-05-01 13:53 | 32.72481 | -16.74313 | 962 ft | 123 kts | 224° |
| 2026-05-01 13:53 | 32.71253 | -16.75735 | 459 ft | 124 kts | 223° |
| 2026-05-01 13:53 | 32.70646 | -16.76444 | 221 ft | 119 kts | 221° |
| 2026-05-01 13:54 | 32.70135 | -16.77042 | 176 ft | 71 kts | 225° |
| 2026-05-01 13:54 | 32.69974 | -16.77187 | 176 ft | 11 kts | 176° |
| 2026-05-01 13:54 | 32.69895 | -16.77180 | 176 ft | 11 kts | 177° |
| 2026-05-01 13:54 | 32.69819 | -16.77203 | 176 ft | 12 kts | 222° |
| 2026-05-01 13:55 | 32.69763 | -16.77272 | 176 ft | 12 kts | 226° |
| 2026-05-01 13:55 | 32.69703 | -16.77345 | 176 ft | 13 kts | 226° |
| 2026-05-01 13:55 | 32.69644 | -16.77419 | 176 ft | 10 kts | 226° |
| 2026-05-01 13:55 | 32.69593 | -16.77483 | 176 ft | 11 kts | 226° |
| 2026-05-01 13:56 | 32.69536 | -16.77553 | 176 ft | 12 kts | 226° |
| 2026-05-01 13:56 | 32.69484 | -16.77601 | 176 ft | 7 kts | 173° |
| 2026-05-01 13:56 | 32.69445 | -16.77564 | 176 ft | 8 kts | 137° |
| 2026-05-01 13:56 | 32.69435 | -16.77553 | 176 ft | 0 kts | 137° |